createdAt,value
2023-06-27T00:01:26.796Z,18.09
2023-06-27T00:03:56.390Z,18.08
2023-06-27T00:06:25.309Z,18.06
2023-06-27T00:08:53.397Z,18.13
2023-06-27T00:11:21.571Z,18.15
2023-06-27T00:13:51.420Z,18.13
2023-06-27T00:16:19.629Z,18.12
2023-06-27T00:18:50.204Z,18.12
2023-06-27T00:21:19.902Z,18.07
2023-06-27T00:23:50.009Z,18.05
2023-06-27T00:26:18.296Z,18.01
2023-06-27T00:28:46.634Z,18.01
2023-06-27T00:31:14.818Z,18.03
2023-06-27T00:33:43.007Z,18.04
2023-06-27T00:36:11.421Z,18.04
2023-06-27T00:38:40.878Z,18.04
2023-06-27T00:41:09.098Z,18.05
2023-06-27T00:43:37.513Z,17.98
2023-06-27T00:46:08.742Z,17.93
2023-06-27T00:48:37.478Z,17.91
2023-06-27T00:51:06.430Z,17.92
2023-06-27T00:53:35.127Z,17.90
2023-06-27T00:56:05.188Z,17.89
2023-06-27T00:58:34.397Z,17.91
2023-06-27T01:01:04.258Z,17.94
2023-06-27T01:03:34.781Z,17.98
2023-06-27T01:06:10.108Z,18.01
2023-06-27T01:08:43.578Z,17.97
2023-06-27T01:11:18.958Z,17.94
2023-06-27T01:13:51.762Z,17.86
2023-06-27T01:16:23.894Z,17.84
2023-06-27T01:18:53.033Z,17.84
2023-06-27T01:21:23.214Z,17.78
2023-06-27T01:23:56.119Z,17.74
2023-06-27T01:26:25.173Z,17.70
2023-06-27T01:28:54.728Z,17.66
2023-06-27T01:31:29.436Z,17.64
2023-06-27T01:34:01.337Z,17.66
2023-06-27T01:36:38.184Z,17.66
2023-06-27T01:39:11.254Z,17.65
2023-06-27T01:41:41.017Z,17.66
2023-06-27T01:44:11.984Z,17.66
2023-06-27T01:46:40.589Z,17.64
2023-06-27T01:49:10.477Z,17.68
2023-06-27T01:51:38.819Z,17.59
2023-06-27T01:54:08.535Z,17.52
2023-06-27T01:56:36.771Z,17.49
2023-06-27T01:59:05.050Z,17.46
2023-06-27T02:01:33.510Z,17.42
2023-06-27T02:04:04.574Z,17.40
2023-06-27T02:06:32.817Z,17.37
2023-06-27T02:12:19.557Z,17.31
2023-06-27T02:14:47.884Z,17.33
2023-06-27T02:17:16.155Z,17.40
2023-06-27T02:19:44.496Z,17.43
2023-06-27T02:22:12.708Z,17.47
2023-06-27T02:24:42.421Z,17.41
2023-06-27T02:27:10.622Z,17.37
2023-06-27T02:29:39.029Z,17.35
2023-06-27T02:32:08.621Z,17.34
2023-06-27T02:34:36.795Z,17.34
2023-06-27T02:37:05.450Z,17.35
2023-06-27T02:39:33.777Z,17.26
2023-06-27T02:42:07.464Z,17.24
2023-06-27T02:44:35.694Z,17.25
2023-06-27T02:47:04.097Z,17.25
2023-06-27T02:49:32.281Z,17.31
2023-06-27T02:52:00.598Z,17.28
2023-06-27T02:54:28.907Z,17.26
2023-06-27T02:56:57.068Z,17.28
2023-06-27T02:59:26.696Z,17.32
2023-06-27T03:01:54.876Z,17.39
2023-06-27T03:04:24.269Z,17.38
2023-06-27T03:06:52.893Z,17.39
2023-06-27T03:09:21.911Z,17.46
2023-06-27T03:11:50.213Z,17.50
2023-06-27T03:14:20.310Z,17.53
2023-06-27T03:16:50.129Z,17.58
2023-06-27T03:19:22.465Z,17.56
2023-06-27T03:21:55.690Z,17.67
2023-06-27T03:24:23.895Z,17.75
2023-06-27T03:26:52.089Z,17.81
2023-06-27T03:29:20.524Z,17.89
2023-06-27T03:31:50.363Z,17.95
2023-06-27T03:34:19.611Z,18.04
2023-06-27T03:36:47.820Z,18.09
2023-06-27T03:39:16.238Z,18.14
2023-06-27T03:41:44.440Z,18.17
2023-06-27T03:44:12.682Z,18.26
2023-06-27T03:46:41.360Z,18.29
2023-06-27T03:49:10.985Z,18.31
2023-06-27T03:51:42.983Z,18.32
2023-06-27T03:54:12.682Z,18.37
2023-06-27T03:56:41.078Z,18.41
2023-06-27T03:59:09.485Z,18.49
2023-06-27T04:01:40.663Z,18.58
2023-06-27T04:04:13.926Z,18.66
2023-06-27T04:06:43.653Z,18.73
2023-06-27T04:09:11.956Z,18.83
2023-06-27T04:11:41.558Z,18.91
2023-06-27T04:14:09.816Z,18.99
2023-06-27T04:16:38.092Z,19.05
2023-06-27T04:19:06.398Z,19.13
2023-06-27T04:21:36.186Z,19.23
2023-06-27T04:24:04.898Z,19.31
2023-06-27T04:26:33.098Z,19.41
2023-06-27T04:29:01.331Z,19.50
2023-06-27T04:31:33.438Z,19.59
2023-06-27T04:34:01.802Z,19.69
2023-06-27T04:36:42.151Z,19.82
2023-06-27T04:39:11.084Z,19.97
2023-06-27T04:41:39.377Z,20.15
2023-06-27T04:44:07.672Z,20.36
2023-06-27T04:46:35.911Z,20.56
2023-06-27T04:49:04.771Z,20.70
2023-06-27T04:51:46.412Z,20.85
2023-06-27T04:54:14.613Z,21.01
2023-06-27T04:56:42.932Z,21.13
2023-06-27T04:59:11.984Z,21.32
2023-06-27T05:01:40.249Z,21.45
2023-06-27T05:04:08.826Z,21.46
2023-06-27T05:06:38.476Z,21.52
2023-06-27T05:09:07.852Z,21.54
2023-06-27T05:11:36.344Z,21.54
2023-06-27T05:14:09.661Z,21.55
2023-06-27T05:16:42.248Z,21.56
2023-06-27T05:19:15.116Z,21.55
2023-06-27T05:21:45.539Z,21.56
2023-06-27T05:24:13.970Z,21.59
2023-06-27T05:26:42.110Z,21.58
2023-06-27T05:29:10.354Z,21.61
2023-06-27T05:31:38.510Z,21.67
2023-06-27T05:34:09.861Z,21.80
2023-06-27T05:36:38.220Z,22.00
2023-06-27T05:39:11.250Z,22.06
2023-06-27T05:41:39.548Z,22.08
2023-06-27T05:44:08.371Z,22.16
2023-06-27T05:46:40.446Z,22.20
2023-06-27T05:49:09.235Z,22.25
2023-06-27T05:51:37.625Z,22.25
2023-06-27T05:54:07.183Z,22.23
2023-06-27T05:56:35.367Z,22.23
2023-06-27T05:59:03.841Z,22.20
2023-06-27T06:01:32.304Z,22.17
2023-06-27T06:04:00.637Z,22.16
2023-06-27T06:06:28.908Z,22.14
2023-06-27T06:08:56.996Z,22.11
2023-06-27T06:11:26.449Z,22.10
2023-06-27T06:13:54.668Z,22.12
2023-06-27T06:16:22.957Z,22.22
2023-06-27T06:18:51.233Z,22.44
2023-06-27T06:21:19.461Z,22.55
2023-06-27T06:23:47.632Z,22.66
2023-06-27T06:26:15.850Z,22.69
2023-06-27T06:28:45.954Z,22.70
2023-06-27T06:31:17.794Z,22.70
2023-06-27T06:33:47.285Z,22.70
2023-06-27T06:36:15.762Z,22.79
2023-06-27T06:38:43.976Z,22.80
2023-06-27T06:41:12.255Z,22.81
2023-06-27T06:43:40.383Z,22.80
2023-06-27T06:46:12.255Z,22.87
2023-06-27T06:48:40.564Z,22.94
2023-06-27T06:51:09.487Z,23.02
2023-06-27T06:53:37.881Z,23.10
2023-06-27T06:56:06.813Z,23.21
2023-06-27T06:58:35.032Z,23.32
2023-06-27T07:01:03.301Z,23.36
2023-06-27T07:03:34.666Z,23.58
2023-06-27T07:06:03.040Z,23.86
2023-06-27T07:08:31.615Z,23.94
2023-06-27T07:11:00.340Z,24.24
2023-06-27T07:13:28.486Z,24.75
2023-06-27T07:15:56.717Z,25.25
2023-06-27T07:18:25.094Z,25.67
2023-06-27T07:20:55.057Z,25.60
2023-06-27T07:23:23.304Z,25.47
2023-06-27T07:25:51.579Z,25.50
2023-06-27T07:28:21.496Z,25.35
2023-06-27T07:30:49.796Z,25.31
2023-06-27T07:33:19.395Z,25.41
2023-06-27T07:35:48.614Z,25.36
2023-06-27T07:38:20.368Z,25.44
2023-06-27T07:40:48.701Z,25.31
2023-06-27T07:43:16.929Z,25.20
2023-06-27T07:45:45.614Z,25.41
2023-06-27T07:48:13.922Z,25.39
2023-06-27T07:50:42.382Z,25.47
2023-06-27T07:53:10.811Z,25.58
2023-06-27T07:55:40.438Z,25.51
2023-06-27T07:58:08.895Z,25.59
2023-06-27T08:00:37.115Z,26.05
2023-06-27T08:03:05.492Z,26.53
2023-06-27T08:05:35.805Z,26.90
2023-06-27T08:08:04.079Z,26.81
2023-06-27T08:10:32.393Z,26.48
2023-06-27T08:13:01.999Z,26.30
2023-06-27T08:15:32.545Z,26.13
2023-06-27T08:18:03.487Z,25.83
2023-06-27T08:20:34.016Z,25.59
2023-06-27T08:23:03.276Z,25.43
2023-06-27T08:25:31.528Z,25.18
2023-06-27T08:28:01.090Z,25.19
2023-06-27T08:30:29.691Z,25.10
2023-06-27T08:32:57.975Z,25.14
2023-06-27T08:35:29.183Z,24.93
2023-06-27T08:37:58.558Z,24.95
2023-06-27T08:40:43.554Z,25.01
2023-06-27T08:43:13.281Z,25.14
2023-06-27T08:45:41.731Z,25.17
2023-06-27T08:48:12.848Z,24.94
2023-06-27T08:50:42.224Z,25.20
2023-06-27T08:53:14.618Z,25.19
2023-06-27T08:55:49.389Z,25.21
2023-06-27T08:58:22.042Z,25.10
2023-06-27T09:00:50.529Z,24.98
2023-06-27T09:03:19.404Z,24.78
2023-06-27T09:05:48.814Z,24.61
2023-06-27T09:08:17.686Z,24.57
2023-06-27T09:10:46.374Z,24.49
2023-06-27T09:13:15.767Z,24.38
2023-06-27T09:15:45.729Z,24.25
2023-06-27T09:18:13.996Z,24.20
2023-06-27T09:20:42.389Z,24.18
2023-06-27T09:23:16.802Z,24.13
2023-06-27T09:25:45.044Z,24.08
2023-06-27T09:28:18.283Z,24.08
2023-06-27T09:30:58.466Z,24.06
2023-06-27T09:33:27.994Z,24.03
2023-06-27T09:36:01.205Z,24.12
2023-06-27T09:41:05.377Z,24.25
2023-06-27T09:43:36.910Z,24.24
2023-06-27T09:46:07.582Z,24.20
2023-06-27T09:48:45.868Z,24.28
2023-06-27T09:51:14.125Z,24.31
2023-06-27T09:53:44.990Z,24.48
2023-06-27T09:56:13.347Z,24.74
2023-06-27T09:58:42.345Z,24.89
2023-06-27T10:01:12.376Z,24.94
2023-06-27T10:03:40.607Z,24.83
2023-06-27T10:06:12.905Z,24.75
2023-06-27T10:08:41.813Z,24.56
2023-06-27T10:13:58.986Z,24.38
2023-06-27T10:16:29.381Z,24.35
2023-06-27T10:18:57.957Z,24.52
2023-06-27T10:21:28.136Z,24.44
2023-06-27T10:23:59.949Z,24.39
2023-06-27T10:26:30.874Z,24.21
2023-06-27T10:28:59.653Z,24.19
2023-06-27T10:31:46.146Z,23.97
2023-06-27T10:34:20.038Z,23.72
2023-06-27T10:37:00.061Z,23.66
2023-06-27T10:39:30.194Z,23.49
2023-06-27T10:42:02.944Z,23.52
2023-06-27T10:44:31.735Z,23.50
2023-06-27T10:47:36.362Z,23.54
2023-06-27T10:50:10.666Z,23.46
2023-06-27T10:52:40.723Z,23.37
2023-06-27T10:55:22.726Z,23.48
2023-06-27T10:57:57.572Z,23.51
2023-06-27T11:00:27.815Z,23.43
2023-06-27T11:02:59.307Z,23.44
2023-06-27T11:05:51.082Z,23.43
2023-06-27T11:08:21.944Z,23.53
2023-06-27T11:10:52.427Z,23.51
2023-06-27T11:13:25.078Z,23.55
2023-06-27T11:15:55.187Z,23.67
2023-06-27T11:18:27.507Z,23.75
2023-06-27T11:20:57.343Z,23.96
2023-06-27T11:23:26.991Z,24.10
2023-06-27T11:25:56.224Z,24.09
2023-06-27T11:28:26.194Z,24.13
2023-06-27T11:31:00.644Z,23.99
2023-06-27T11:33:30.485Z,23.83
2023-06-27T11:36:00.913Z,23.71
2023-06-27T11:38:30.544Z,23.72
2023-06-27T11:40:59.340Z,23.55
2023-06-27T11:43:28.814Z,23.61
2023-06-27T11:45:59.525Z,23.57
2023-06-27T11:48:30.970Z,23.44
2023-06-27T11:51:01.236Z,23.32
2023-06-27T11:53:30.289Z,23.19
2023-06-27T11:58:31.681Z,23.03
2023-06-27T12:01:00.448Z,22.92
2023-06-27T12:03:31.873Z,22.87
2023-06-27T12:06:00.437Z,22.81
2023-06-27T12:08:32.890Z,22.82
2023-06-27T12:11:04.232Z,22.80
2023-06-27T12:13:35.009Z,22.82
2023-06-27T12:16:04.504Z,22.87
2023-06-27T12:18:34.786Z,22.83
2023-06-27T12:21:03.077Z,22.81
2023-06-27T12:23:31.908Z,22.88
2023-06-27T12:26:00.430Z,22.90
2023-06-27T12:28:29.366Z,22.83
2023-06-27T12:30:57.605Z,22.68
2023-06-27T12:33:26.336Z,22.66
2023-06-27T12:35:56.343Z,22.54
2023-06-27T12:38:24.633Z,22.57
2023-06-27T12:40:52.907Z,22.56
2023-06-27T12:43:23.921Z,22.60
2023-06-27T12:46:02.401Z,22.60
2023-06-27T12:48:30.716Z,22.52
2023-06-27T12:51:00.422Z,22.52
2023-06-27T12:53:28.615Z,22.54
2023-06-27T12:55:56.975Z,22.52
2023-06-27T12:58:25.314Z,22.59
2023-06-27T13:00:56.029Z,22.65
2023-06-27T13:03:24.488Z,22.67
2023-06-27T13:05:53.062Z,22.71
2023-06-27T13:08:22.699Z,22.80
2023-06-27T13:10:51.445Z,22.67
2023-06-27T13:13:20.079Z,22.58
2023-06-27T13:16:00.280Z,22.50
2023-06-27T13:18:33.339Z,22.48
2023-06-27T13:21:01.970Z,22.43
2023-06-27T13:23:31.802Z,22.44
2023-06-27T13:26:00.289Z,22.32
2023-06-27T13:28:29.419Z,22.31
2023-06-27T13:30:57.681Z,22.29
2023-06-27T13:33:26.257Z,22.25
2023-06-27T13:35:54.569Z,22.13
2023-06-27T13:38:22.860Z,22.22
2023-06-27T13:41:01.272Z,22.22
2023-06-27T13:43:29.456Z,22.20
2023-06-27T13:45:57.963Z,22.15
2023-06-27T13:48:27.770Z,22.17
2023-06-27T13:50:58.453Z,22.14
2023-06-27T13:53:27.043Z,22.13
2023-06-27T13:55:55.901Z,22.19
2023-06-27T13:58:26.994Z,22.21
2023-06-27T14:00:57.453Z,22.13
2023-06-27T14:03:26.046Z,21.98
2023-06-27T14:05:54.895Z,21.96
2023-06-27T14:08:23.557Z,21.93
2023-06-27T14:10:52.875Z,21.89
2023-06-27T14:13:21.306Z,21.92
2023-06-27T14:15:51.092Z,21.89
2023-06-27T14:18:20.303Z,21.82
2023-06-27T14:20:50.585Z,21.81
2023-06-27T14:23:21.175Z,21.78
2023-06-27T14:25:49.850Z,21.77
2023-06-27T14:28:20.842Z,21.69
2023-06-27T14:30:50.440Z,21.69
2023-06-27T14:33:22.559Z,21.67
2023-06-27T14:35:52.719Z,21.58
2023-06-27T14:38:21.463Z,21.55
2023-06-27T14:40:50.430Z,21.51
2023-06-27T14:43:20.278Z,21.47
2023-06-27T14:45:49.966Z,21.48
2023-06-27T14:48:18.410Z,21.46
2023-06-27T14:50:49.317Z,21.48
2023-06-27T14:53:17.687Z,21.45
2023-06-27T14:55:45.918Z,21.47
2023-06-27T14:58:14.048Z,21.45
2023-06-27T15:00:42.799Z,21.38
2023-06-27T15:03:12.705Z,21.41
2023-06-27T15:05:41.662Z,21.38
2023-06-27T15:08:10.035Z,21.37
2023-06-27T15:10:40.306Z,21.39
2023-06-27T15:13:09.317Z,21.32
2023-06-27T15:15:39.329Z,21.30
2023-06-27T15:18:07.783Z,21.30
2023-06-27T15:20:38.983Z,21.34
2023-06-27T15:23:07.391Z,21.28
2023-06-27T15:25:35.672Z,21.29
2023-06-27T15:28:04.709Z,21.27
2023-06-27T15:30:33.144Z,21.26
2023-06-27T15:33:12.605Z,21.23
2023-06-27T15:35:42.621Z,21.27
2023-06-27T15:38:12.065Z,21.23
2023-06-27T15:40:40.587Z,21.26
2023-06-27T15:43:09.862Z,21.20
2023-06-27T15:45:38.370Z,21.22
2023-06-27T15:48:07.283Z,21.24
2023-06-27T15:50:35.518Z,21.15
2023-06-27T15:53:05.130Z,21.17
2023-06-27T15:55:36.126Z,21.17
2023-06-27T15:58:04.888Z,21.15
2023-06-27T16:00:33.186Z,21.12
2023-06-27T16:03:01.587Z,21.08
2023-06-27T16:05:32.295Z,21.05
2023-06-27T16:08:00.904Z,20.98
2023-06-27T16:10:30.999Z,20.89
2023-06-27T16:12:59.934Z,20.82
2023-06-27T16:15:28.172Z,20.74
2023-06-27T16:17:56.561Z,20.71
2023-06-27T16:20:24.939Z,20.66
2023-06-27T16:22:53.420Z,20.64
2023-06-27T16:25:21.857Z,20.62
2023-06-27T16:27:51.461Z,20.55
2023-06-27T16:30:19.748Z,20.49
2023-06-27T16:32:48.286Z,20.50
2023-06-27T16:35:16.730Z,20.48
2023-06-27T16:37:44.955Z,20.46
2023-06-27T16:40:13.708Z,20.43
2023-06-27T16:42:42.198Z,20.45
2023-06-27T16:45:12.509Z,20.47
2023-06-27T16:47:40.738Z,20.50
2023-06-27T16:50:10.907Z,20.55
2023-06-27T16:52:39.284Z,20.55
2023-06-27T16:55:08.903Z,20.48
2023-06-27T16:57:37.192Z,20.49
2023-06-27T17:00:08.492Z,20.48
2023-06-27T17:02:38.758Z,20.42
2023-06-27T17:05:07.791Z,20.50
2023-06-27T17:07:36.259Z,20.49
2023-06-27T17:10:05.158Z,20.47
2023-06-27T17:12:33.461Z,20.43
2023-06-27T17:15:03.844Z,20.51
2023-06-27T17:17:32.305Z,20.53
2023-06-27T17:20:02.067Z,20.54
2023-06-27T17:22:32.917Z,20.55
2023-06-27T17:25:05.296Z,20.57
2023-06-27T17:27:34.129Z,20.59
2023-06-27T17:30:05.365Z,20.62
2023-06-27T17:32:34.079Z,20.60
2023-06-27T17:35:04.628Z,20.56
2023-06-27T17:37:35.704Z,20.55
2023-06-27T17:40:05.972Z,20.55
2023-06-27T17:42:38.929Z,20.50
2023-06-27T17:45:09.248Z,20.52
2023-06-27T17:47:47.112Z,20.51
2023-06-27T17:50:24.184Z,20.55
2023-06-27T17:52:55.041Z,20.55
2023-06-27T17:55:29.905Z,20.58
2023-06-27T17:58:02.075Z,20.56
2023-06-27T18:00:34.262Z,20.58
2023-06-27T18:03:08.981Z,20.55
2023-06-27T18:05:52.983Z,20.55
2023-06-27T18:08:24.794Z,20.56
2023-06-27T18:10:58.681Z,20.57
2023-06-27T18:13:40.667Z,20.58
2023-06-27T18:16:12.720Z,20.61
2023-06-27T18:18:55.658Z,20.60
2023-06-27T18:21:52.805Z,20.58
2023-06-27T18:24:32.600Z,20.58
2023-06-27T18:27:03.524Z,20.56
2023-06-27T18:29:50.949Z,20.54
2023-06-27T18:32:22.295Z,20.53
2023-06-27T18:34:56.366Z,20.51
2023-06-27T18:37:32.704Z,20.51
2023-06-27T18:40:04.044Z,20.42
2023-06-27T18:42:39.166Z,20.37
2023-06-27T18:45:22.925Z,20.30
2023-06-27T18:47:58.584Z,20.19
2023-06-27T18:50:30.752Z,20.08
2023-06-27T18:53:06.450Z,19.92
2023-06-27T18:55:43.313Z,19.96
2023-06-27T18:58:17.508Z,20.02
2023-06-27T19:00:54.923Z,19.94
2023-06-27T19:03:27.851Z,19.98
2023-06-27T19:06:05.322Z,19.94
2023-06-27T19:08:42.031Z,19.92
2023-06-27T19:11:31.395Z,19.89
2023-06-27T19:14:13.646Z,19.87
2023-06-27T19:16:44.998Z,19.78
2023-06-27T19:19:17.926Z,19.69
2023-06-27T19:22:08.923Z,19.58
2023-06-27T19:24:47.230Z,19.48
2023-06-27T19:27:19.209Z,19.43
2023-06-27T19:30:04.454Z,19.37
2023-06-27T19:32:37.982Z,19.30
2023-06-27T19:35:17.210Z,19.31
2023-06-27T19:37:53.967Z,19.29
2023-06-27T19:40:44.806Z,19.29
2023-06-27T19:43:13.582Z,19.28
2023-06-27T19:45:42.166Z,19.34
2023-06-27T19:48:13.744Z,19.31
2023-06-27T19:50:47.910Z,19.26
2023-06-27T19:53:24.148Z,19.24
2023-06-27T19:55:54.337Z,19.25
2023-06-27T19:58:32.730Z,19.25
2023-06-27T20:01:17.100Z,19.23
2023-06-27T20:03:55.785Z,19.24
2023-06-27T20:06:29.959Z,19.17
2023-06-27T20:09:05.921Z,19.17
2023-06-27T20:11:39.095Z,19.17
2023-06-27T20:14:11.004Z,19.18
2023-06-27T20:16:42.000Z,19.21
2023-06-27T20:21:59.257Z,19.20
2023-06-27T20:24:27.480Z,19.14
2023-06-27T20:26:57.489Z,19.12
2023-06-27T20:29:28.413Z,19.05
2023-06-27T20:32:02.162Z,19.11
2023-06-27T20:34:33.681Z,19.07
2023-06-27T20:37:09.517Z,19.04
2023-06-27T20:39:41.965Z,18.99
2023-06-27T20:42:29.796Z,19.00
2023-06-27T20:45:07.080Z,18.97
2023-06-27T20:47:35.419Z,18.96
2023-06-27T20:50:04.230Z,18.91
2023-06-27T20:52:32.439Z,18.90
2023-06-27T20:55:19.393Z,18.89
2023-06-27T20:57:50.615Z,18.83
2023-06-27T21:00:37.303Z,18.84
2023-06-27T21:03:14.860Z,18.90
2023-06-27T21:05:55.941Z,18.98
2023-06-27T21:08:25.780Z,19.02
2023-06-27T21:10:55.327Z,19.00
2023-06-27T21:13:27.653Z,19.05
2023-06-27T21:16:01.015Z,19.14
2023-06-27T21:18:30.081Z,19.09
2023-06-27T21:21:07.725Z,19.10
2023-06-27T21:23:38.822Z,19.12
2023-06-27T21:26:08.901Z,19.16
2023-06-27T21:28:38.783Z,19.23
2023-06-27T21:31:08.120Z,19.22
2023-06-27T21:34:04.941Z,19.20
2023-06-27T21:36:33.440Z,19.18
2023-06-27T21:39:08.395Z,19.20
2023-06-27T21:41:46.704Z,19.16
2023-06-27T21:44:16.774Z,19.08
2023-06-27T21:46:45.128Z,19.05
2023-06-27T21:49:13.620Z,18.95
2023-06-27T21:51:46.275Z,18.90
2023-06-27T21:54:15.079Z,18.85
2023-06-27T21:56:45.980Z,18.80
2023-06-27T21:59:18.550Z,18.71
2023-06-27T22:01:46.827Z,18.63
2023-06-27T22:04:19.692Z,18.64
2023-06-27T22:06:48.333Z,18.64
2023-06-27T22:09:16.665Z,18.57
2023-06-27T22:11:45.816Z,18.60
2023-06-27T22:14:16.052Z,18.54
2023-06-27T22:16:50.299Z,18.49
2023-06-27T22:19:31.101Z,18.54
2023-06-27T22:22:05.048Z,18.48
2023-06-27T22:24:33.780Z,18.56
2023-06-27T22:27:09.136Z,18.49
2023-06-27T22:29:37.967Z,18.49
2023-06-27T22:32:11.554Z,18.57
2023-06-27T22:34:39.882Z,18.55
2023-06-27T22:37:08.397Z,18.53
2023-06-27T22:39:36.845Z,18.48
2023-06-27T22:42:20.694Z,18.48
2023-06-27T22:44:51.663Z,18.46
2023-06-27T22:47:26.045Z,18.42
2023-06-27T22:50:05.245Z,18.38
2023-06-27T22:52:33.956Z,18.35
2023-06-27T22:55:03.221Z,18.36
2023-06-27T22:57:44.765Z,18.38
2023-06-27T23:00:23.945Z,18.35
2023-06-27T23:02:53.701Z,18.34
2023-06-27T23:05:22.349Z,18.39
2023-06-27T23:07:50.707Z,18.38
2023-06-27T23:10:19.143Z,18.39
2023-06-27T23:12:48.078Z,18.34
2023-06-27T23:15:19.317Z,18.35
2023-06-27T23:17:52.184Z,18.36
2023-06-27T23:20:26.945Z,18.30
2023-06-27T23:22:55.309Z,18.34
2023-06-27T23:25:26.595Z,18.32
2023-06-27T23:27:59.345Z,18.28
2023-06-27T23:30:29.846Z,18.27
2023-06-27T23:33:01.754Z,18.33
2023-06-27T23:35:31.672Z,18.26
2023-06-27T23:38:06.539Z,18.28
2023-06-27T23:40:43.919Z,18.27
2023-06-27T23:43:21.351Z,18.29
2023-06-27T23:45:49.648Z,18.30
2023-06-27T23:48:20.760Z,18.27
2023-06-27T23:50:51.067Z,18.26
2023-06-27T23:53:23.188Z,18.24
2023-06-27T23:56:23.572Z,18.25
2023-06-27T23:59:06.275Z,18.29
